createdAt,value
2023-02-17T00:09:33.934Z,-2.44
2023-02-17T00:21:34.383Z,-2.43
2023-02-17T00:33:34.849Z,-2.23
2023-02-17T00:45:35.272Z,-2.22
2023-02-17T00:57:35.749Z,-2.45
2023-02-17T01:09:36.198Z,-2.20
2023-02-17T01:21:36.661Z,-1.98
2023-02-17T01:33:37.102Z,-1.68
2023-02-17T01:45:37.568Z,-1.69
2023-02-17T01:57:37.994Z,-1.91
2023-02-17T02:09:38.451Z,-1.85
2023-02-17T02:21:38.975Z,-1.73
2023-02-17T02:33:39.351Z,-1.60
2023-02-17T02:45:39.862Z,-1.34
2023-02-17T02:57:40.271Z,-1.43
2023-02-17T03:09:40.683Z,-1.57
2023-02-17T03:21:41.149Z,-1.53
2023-02-17T03:33:41.585Z,-1.70
2023-02-17T03:45:42.081Z,-1.62
2023-02-17T03:57:42.489Z,-1.79
2023-02-17T04:09:42.965Z,-1.71
2023-02-17T04:21:43.417Z,-1.71
2023-02-17T04:33:43.864Z,-1.56
2023-02-17T04:45:44.340Z,-1.48
2023-02-17T04:57:44.760Z,-1.33
2023-02-17T05:09:45.210Z,-1.16
2023-02-17T05:21:45.661Z,-1.14
2023-02-17T05:33:46.090Z,-1.13
2023-02-17T05:45:46.574Z,-1.26
2023-02-17T05:57:47.000Z,-1.42
2023-02-17T06:09:47.509Z,-1.30
2023-02-17T06:21:47.910Z,-1.41
2023-02-17T06:33:48.364Z,-1.28
2023-02-17T06:45:48.859Z,-1.07
2023-02-17T06:57:49.300Z,-0.94
2023-02-17T07:09:49.747Z,-0.61
2023-02-17T07:21:50.197Z,-0.40
2023-02-17T07:33:50.646Z,-0.34
2023-02-17T07:45:51.151Z,0.07
2023-02-17T07:57:51.553Z,0.48
2023-02-17T08:09:51.977Z,1.77
2023-02-17T08:21:52.451Z,3.35
2023-02-17T08:33:52.964Z,5.25
2023-02-17T08:45:53.368Z,6.57
2023-02-17T08:57:53.822Z,7.82
2023-02-17T09:09:54.250Z,7.96
2023-02-17T09:21:54.777Z,9.63
2023-02-17T09:33:55.280Z,12.21
2023-02-17T09:45:55.655Z,14.62
2023-02-17T09:57:56.090Z,14.87
2023-02-17T10:09:56.573Z,15.06
2023-02-17T10:21:57.094Z,15.05
2023-02-17T10:33:57.404Z,14.99
2023-02-17T10:45:57.889Z,15.12
2023-02-17T10:57:58.342Z,14.96
2023-02-17T11:09:58.762Z,15.28
2023-02-17T11:21:59.252Z,15.60
2023-02-17T11:33:59.729Z,15.98
2023-02-17T11:46:00.998Z,15.92
2023-02-17T11:58:00.615Z,16.09
2023-02-17T12:10:01.030Z,15.68
2023-02-17T12:22:01.495Z,15.50
2023-02-17T12:34:01.943Z,15.52
2023-02-17T12:46:02.442Z,15.42
2023-02-17T12:58:02.828Z,15.07
2023-02-17T13:10:03.341Z,15.37
2023-02-17T13:22:03.799Z,15.32
2023-02-17T13:34:04.214Z,15.10
2023-02-17T13:46:04.937Z,14.70
2023-02-17T13:58:05.135Z,14.72
2023-02-17T14:10:05.595Z,14.49
2023-02-17T14:22:06.039Z,14.32
2023-02-17T14:34:06.479Z,14.26
2023-02-17T14:46:07.306Z,14.08
2023-02-17T14:58:07.436Z,13.78
2023-02-17T15:10:07.870Z,13.56
2023-02-17T15:22:08.312Z,13.07
2023-02-17T15:34:08.778Z,13.06
2023-02-17T15:46:09.390Z,12.17
2023-02-17T15:58:09.656Z,11.38
2023-02-17T16:10:10.132Z,10.63
2023-02-17T16:22:10.560Z,10.27
2023-02-17T16:34:11.044Z,9.82
2023-02-17T16:46:11.606Z,9.77
2023-02-17T16:58:11.926Z,8.90
2023-02-17T17:10:16.528Z,8.44
2023-02-17T17:22:12.905Z,8.67
2023-02-17T17:34:13.317Z,8.40
2023-02-17T17:46:13.811Z,8.26
2023-02-17T17:58:14.214Z,8.31
2023-02-17T18:10:14.699Z,7.76
2023-02-17T18:22:15.132Z,10.52
2023-02-17T18:34:15.549Z,12.78
2023-02-17T18:46:16.067Z,12.75
2023-02-17T18:58:16.447Z,12.74
2023-02-17T19:10:16.901Z,13.45
2023-02-17T19:22:17.461Z,13.36
2023-02-17T19:34:17.824Z,12.48
2023-02-17T19:46:18.345Z,12.23
2023-02-17T19:58:18.765Z,11.59
2023-02-17T20:10:19.216Z,11.14
2023-02-17T20:22:19.646Z,11.49
2023-02-17T20:34:20.120Z,11.45
2023-02-17T20:46:20.590Z,11.37
2023-02-17T20:58:20.988Z,11.26
2023-02-17T21:10:21.773Z,11.21
2023-02-17T21:22:21.927Z,11.28
2023-02-17T21:34:22.368Z,10.38
2023-02-17T21:46:22.840Z,8.79
2023-02-17T21:58:23.281Z,8.17
2023-02-17T22:10:23.702Z,7.60
2023-02-17T22:22:24.177Z,7.23
2023-02-17T22:34:24.620Z,6.09
2023-02-17T22:46:25.049Z,6.43
2023-02-17T22:58:25.552Z,5.53
2023-02-17T23:10:25.988Z,5.08
2023-02-17T23:22:26.421Z,4.85
2023-02-17T23:34:26.882Z,4.74
2023-02-17T23:46:27.395Z,4.78
2023-02-17T23:58:27.778Z,4.60
